KAZO/AZO METAR and TAF weather

Enter ICAO airport designator
Station Type Date Time Source
KAZO METAR 2022/10/01 06:53 UTC NOAA

KAZO 010653Z AUTO 00000KT 9SM CLR 07/05 A3018 RMK AO2 SLP223 T00720050 $


Station Type Date Time Source
KAZO Decoded METAR 2022/10/01 06:53 UTC NOAA

KALAMAZOO/BATTLE CREEK AIRPORT, MI, United States (KAZO) 42-14N 085-33W 272M
Oct 01, 2022 - 02:53 AM EDT / 2022.10.01 0653 UTC
Wind: Calm:0
Visibility: 9 mile(s):0
Sky conditions: clear
Temperature: 45.0 F (7.2 C)
Dew Point: 41.0 F (5.0 C)
Relative Humidity: 85%
Pressure (altimeter): 30.18 in. Hg (1022 hPa)
ob: KAZO 010653Z AUTO 00000KT 9SM CLR 07/05 A3018 RMK AO2 SLP223 T00720050
cycle: 7

Station Type Date Time Source
KAZO TAF 2022/10/01 06:33 UTC NOAA

TAF KAZO 010530Z 0106/0206 02004KT P6SM SKC
FM020000 01005KT P6SM SKC

Example: see airport list